createdAt,value
2019-01-11T00:00:40.378Z,73.53
2019-01-11T00:03:43.772Z,73.76
2019-01-11T00:06:47.173Z,73.77
2019-01-11T00:09:50.542Z,73.66
2019-01-11T00:12:53.956Z,73.67
2019-01-11T00:15:57.364Z,73.16
2019-01-11T00:19:06.958Z,73.21
2019-01-11T00:22:04.298Z,73.04
2019-01-11T00:25:07.764Z,73.14
2019-01-11T00:28:11.266Z,72.87
2019-01-11T00:31:14.696Z,73.46
2019-01-11T00:34:19.121Z,74.16
2019-01-11T00:37:22.576Z,74.26
2019-01-11T00:40:26.027Z,74.31
2019-01-11T00:43:29.394Z,74.18
2019-01-11T00:46:32.803Z,74.50
2019-01-11T00:49:36.208Z,74.72
2019-01-11T00:52:39.692Z,74.59
2019-01-11T00:55:43.106Z,75.25
2019-01-11T00:58:46.494Z,75.36
2019-01-11T01:01:50.806Z,75.88
2019-01-11T01:04:54.246Z,76.14
2019-01-11T01:07:57.710Z,76.74
2019-01-11T01:11:01.140Z,76.94
2019-01-11T01:14:04.644Z,76.43
2019-01-11T01:17:08.299Z,76.85
2019-01-11T01:20:12.499Z,76.87
2019-01-11T01:23:15.929Z,76.91
2019-01-11T01:26:19.369Z,76.58
2019-01-11T01:29:22.777Z,76.44
2019-01-11T01:32:28.120Z,76.39
2019-01-11T01:35:31.504Z,76.92
2019-01-11T01:38:34.910Z,77.62
2019-01-11T01:41:38.360Z,77.53
2019-01-11T01:44:41.712Z,77.76
2019-01-11T01:47:45.178Z,77.71
2019-01-11T01:50:48.525Z,78.71
2019-01-11T01:53:51.948Z,78.43
2019-01-11T01:56:55.328Z,78.82
2019-01-11T01:59:58.698Z,79.04
2019-01-11T02:03:02.145Z,79.30
2019-01-11T02:06:05.637Z,78.89
2019-01-11T02:09:09.221Z,80.19
2019-01-11T02:12:12.703Z,80.30
2019-01-11T02:15:16.065Z,80.00
2019-01-11T02:18:19.468Z,79.50
2019-01-11T02:21:22.832Z,79.60
2019-01-11T02:24:26.316Z,79.62
2019-01-11T02:27:29.727Z,79.63
2019-01-11T02:30:33.148Z,79.34
2019-01-11T02:33:36.536Z,79.65
2019-01-11T02:36:39.941Z,80.30
2019-01-11T02:39:43.373Z,80.22
2019-01-11T02:42:46.754Z,80.49
2019-01-11T02:45:50.141Z,80.39
2019-01-11T02:48:53.649Z,79.86
2019-01-11T02:51:57.065Z,79.38
2019-01-11T02:55:00.449Z,78.83
2019-01-11T02:58:03.852Z,78.92
2019-01-11T03:01:07.285Z,78.54
2019-01-11T03:04:10.687Z,78.40
2019-01-11T03:07:14.078Z,78.28
2019-01-11T03:10:19.258Z,77.88
2019-01-11T03:13:22.697Z,78.24
2019-01-11T03:16:26.428Z,78.05
2019-01-11T03:19:29.809Z,77.84
2019-01-11T03:22:33.223Z,77.94
2019-01-11T03:25:37.726Z,78.42
2019-01-11T03:28:42.093Z,78.54
2019-01-11T03:31:45.476Z,78.35
2019-01-11T03:34:55.058Z,78.78
2019-01-11T03:37:58.459Z,78.93
2019-01-11T03:41:01.874Z,79.32
2019-01-11T03:44:06.216Z,80.13
2019-01-11T03:47:09.602Z,80.30
2019-01-11T03:50:13.535Z,80.31
2019-01-11T03:53:16.936Z,80.55
2019-01-11T03:56:20.357Z,80.16
2019-01-11T03:59:23.763Z,79.88
2019-01-11T04:02:27.148Z,80.08
2019-01-11T04:05:30.573Z,80.13
2019-01-11T04:08:34.320Z,80.05
2019-01-11T04:11:37.760Z,80.43
2019-01-11T04:14:41.164Z,80.69
2019-01-11T04:17:44.625Z,80.48
2019-01-11T04:20:48.048Z,80.70
2019-01-11T04:23:51.436Z,80.59
2019-01-11T04:26:54.878Z,80.89
2019-01-11T04:29:58.265Z,80.85
2019-01-11T04:33:01.677Z,81.03
2019-01-11T04:36:05.120Z,80.86
2019-01-11T04:39:08.530Z,81.67
2019-01-11T04:42:11.971Z,81.28
2019-01-11T04:45:15.458Z,80.77
2019-01-11T04:48:18.889Z,80.58
2019-01-11T04:51:22.524Z,79.98
2019-01-11T04:54:26.035Z,80.25
2019-01-11T04:57:30.489Z,80.16
2019-01-11T05:00:34.079Z,80.14
2019-01-11T05:03:37.514Z,80.68
2019-01-11T05:06:40.986Z,80.79
2019-01-11T05:09:44.532Z,80.57
2019-01-11T05:12:48.072Z,80.53
2019-01-11T05:15:51.717Z,80.91
2019-01-11T05:18:55.353Z,81.51
2019-01-11T05:21:58.895Z,81.71
2019-01-11T05:25:02.361Z,82.28
2019-01-11T05:28:05.902Z,82.25
2019-01-11T05:31:10.418Z,82.78
2019-01-11T05:34:13.929Z,82.91
2019-01-11T05:37:17.379Z,83.56
2019-01-11T05:40:20.978Z,83.80
2019-01-11T05:43:24.380Z,83.71
2019-01-11T05:46:27.824Z,84.45
2019-01-11T05:49:31.205Z,84.53
2019-01-11T05:52:34.592Z,83.99
2019-01-11T05:55:50.333Z,83.43
2019-01-11T05:58:57.865Z,84.10
2019-01-11T06:02:01.344Z,84.51
2019-01-11T06:05:08.028Z,84.42
2019-01-11T06:08:14.801Z,85.20
2019-01-11T06:11:18.260Z,84.71
2019-01-11T06:14:21.742Z,85.47
2019-01-11T06:17:25.168Z,84.56
2019-01-11T06:20:30.487Z,84.72
2019-01-11T06:23:32.120Z,85.22
2019-01-11T06:26:35.587Z,84.52
2019-01-11T06:29:39.008Z,85.08
2019-01-11T06:32:42.448Z,84.87
2019-01-11T06:35:45.875Z,84.45
2019-01-11T06:38:49.270Z,84.83
2019-01-11T06:41:54.519Z,84.57
2019-01-11T06:44:57.986Z,84.55
2019-01-11T06:48:01.499Z,84.17
2019-01-11T06:51:05.047Z,84.07
2019-01-11T06:54:08.466Z,83.28
2019-01-11T06:57:11.829Z,83.04
2019-01-11T07:00:15.378Z,83.01
2019-01-11T07:03:18.886Z,83.12
2019-01-11T07:06:22.364Z,82.94
2019-01-11T07:09:25.789Z,83.11
2019-01-11T07:12:29.222Z,83.46
2019-01-11T07:15:32.618Z,83.56
2019-01-11T07:18:36.063Z,84.04
2019-01-11T07:21:39.477Z,84.45
2019-01-11T07:24:42.851Z,84.48
2019-01-11T07:27:50.555Z,83.30
2019-01-11T07:30:59.202Z,84.11
2019-01-11T07:34:02.581Z,84.01
2019-01-11T07:37:06.164Z,85.08
2019-01-11T07:40:09.825Z,84.16
2019-01-11T07:43:13.193Z,85.03
2019-01-11T07:46:16.577Z,85.42
2019-01-11T07:49:23.228Z,85.26
2019-01-11T07:52:23.541Z,84.64
2019-01-11T07:55:27.127Z,85.47
2019-01-11T07:58:30.530Z,86.49
2019-01-11T08:01:36.142Z,86.92
2019-01-11T08:04:39.614Z,87.30
2019-01-11T08:07:43.099Z,87.34
2019-01-11T08:10:46.485Z,86.42
2019-01-11T08:13:49.853Z,87.57
2019-01-11T08:16:53.243Z,87.46
2019-01-11T08:19:56.712Z,86.72
2019-01-11T08:23:00.201Z,88.02
2019-01-11T08:26:03.847Z,87.17
2019-01-11T08:29:07.317Z,87.52
2019-01-11T08:32:10.795Z,87.70
2019-01-11T08:35:14.350Z,87.94
2019-01-11T08:38:17.799Z,87.44
2019-01-11T08:41:21.259Z,88.35
2019-01-11T08:44:24.720Z,88.69
2019-01-11T08:47:28.118Z,88.83
2019-01-11T08:50:31.620Z,89.40
2019-01-11T08:53:35.250Z,88.73
2019-01-11T08:56:38.535Z,89.41
2019-01-11T08:59:41.928Z,90.03
2019-01-11T09:03:33.785Z,89.14
2019-01-11T09:06:38.340Z,89.32
2019-01-11T09:09:41.840Z,89.57
2019-01-11T09:12:45.288Z,90.70
2019-01-11T09:15:49.171Z,90.00
2019-01-11T09:18:55.273Z,90.62
2019-01-11T09:21:58.646Z,90.92
2019-01-11T09:25:02.065Z,90.84
2019-01-11T09:28:05.522Z,90.30
2019-01-11T09:31:08.993Z,89.93
2019-01-11T09:34:12.482Z,90.82
2019-01-11T09:37:15.850Z,91.20
2019-01-11T09:40:19.286Z,90.09
2019-01-11T09:43:22.801Z,90.82
2019-01-11T09:46:26.273Z,91.74
2019-01-11T09:49:29.671Z,92.22
2019-01-11T09:52:33.088Z,91.43
2019-01-11T09:55:36.509Z,93.21
2019-01-11T09:58:39.987Z,90.45
2019-01-11T10:01:43.464Z,90.62
2019-01-11T10:04:46.878Z,91.40
2019-01-11T10:07:50.301Z,90.35
2019-01-11T10:10:53.782Z,90.22
2019-01-11T10:13:57.415Z,91.23
2019-01-11T10:17:00.760Z,92.48
2019-01-11T10:20:04.457Z,93.15
2019-01-11T10:23:07.914Z,92.73
2019-01-11T10:26:11.352Z,93.28
2019-01-11T10:29:14.774Z,92.95
2019-01-11T10:32:18.240Z,92.61
2019-01-11T10:35:21.642Z,94.32
2019-01-11T10:38:25.096Z,93.72
2019-01-11T10:41:28.534Z,93.70
2019-01-11T10:44:31.895Z,94.43
2019-01-11T10:47:35.314Z,93.40
2019-01-11T10:50:38.802Z,94.03
2019-01-11T10:53:42.231Z,93.87
2019-01-11T10:56:45.738Z,94.97
2019-01-11T10:59:49.118Z,94.64
2019-01-11T11:02:52.856Z,95.31
2019-01-11T11:05:56.291Z,94.60
2019-01-11T11:08:59.743Z,95.04
2019-01-11T11:12:03.149Z,96.23
2019-01-11T11:15:07.386Z,96.10
2019-01-11T11:18:10.769Z,95.33
2019-01-11T11:21:14.183Z,94.53
2019-01-11T11:24:17.613Z,95.00
2019-01-11T11:27:21.087Z,94.89
2019-01-11T11:30:24.490Z,95.16
2019-01-11T11:33:27.847Z,94.75
2019-01-11T11:36:31.237Z,94.44
2019-01-11T11:39:34.697Z,95.05
2019-01-11T11:42:38.181Z,95.86
2019-01-11T11:45:41.594Z,95.98
2019-01-11T11:48:45.096Z,95.50
2019-01-11T11:51:48.841Z,97.34
2019-01-11T11:54:52.280Z,96.15
2019-01-11T11:57:55.696Z,96.50
2019-01-11T12:00:59.167Z,96.57
2019-01-11T12:04:02.579Z,97.44
2019-01-11T12:07:07.712Z,97.32
2019-01-11T12:10:11.572Z,97.61
2019-01-11T12:13:15.003Z,97.51
2019-01-11T12:16:18.560Z,98.37
2019-01-11T12:19:21.893Z,98.10
2019-01-11T12:22:25.357Z,97.42
2019-01-11T12:25:28.769Z,99.24
2019-01-11T12:28:32.244Z,100.00
2019-01-11T12:31:35.638Z,100.00
2019-01-11T12:34:39.033Z,99.81
2019-01-11T12:37:42.452Z,99.14
2019-01-11T12:40:45.851Z,99.60
2019-01-11T12:43:49.919Z,100.00
2019-01-11T12:46:52.811Z,100.00
2019-01-11T12:49:56.253Z,100.00
2019-01-11T12:52:59.715Z,100.00
2019-01-11T12:56:03.199Z,100.00
2019-01-11T12:59:06.704Z,100.00
2019-01-11T13:02:10.473Z,100.00
2019-01-11T13:05:16.269Z,100.00
2019-01-11T13:08:19.821Z,100.00
2019-01-11T13:11:23.265Z,100.00
2019-01-11T13:14:27.072Z,100.00
2019-01-11T13:17:30.601Z,100.00
2019-01-11T13:20:34.074Z,100.00
2019-01-11T13:23:37.479Z,100.00
2019-01-11T13:26:40.875Z,100.00
2019-01-11T13:29:44.302Z,100.00
2019-01-11T13:32:47.883Z,100.00
2019-01-11T13:35:51.720Z,100.00
2019-01-11T13:38:55.233Z,100.00
2019-01-11T13:41:58.796Z,100.00
2019-01-11T13:45:02.360Z,100.00
2019-01-11T13:48:05.929Z,100.00
2019-01-11T13:51:09.474Z,100.00
2019-01-11T13:54:12.935Z,100.00
2019-01-11T13:57:16.434Z,100.00
2019-01-11T14:00:19.993Z,100.00
2019-01-11T14:03:23.445Z,100.00
2019-01-11T14:06:26.998Z,100.00
2019-01-11T14:09:30.486Z,100.00
2019-01-11T14:12:33.903Z,100.00
2019-01-11T14:15:37.440Z,100.00
2019-01-11T14:18:40.916Z,100.00
2019-01-11T14:21:44.559Z,100.00
2019-01-11T14:24:48.137Z,100.00
2019-01-11T14:27:51.554Z,100.00
2019-01-11T14:30:55.038Z,100.00
2019-01-11T14:33:58.679Z,100.00
2019-01-11T14:37:02.210Z,100.00
2019-01-11T14:40:07.602Z,100.00
2019-01-11T14:43:11.071Z,100.00
2019-01-11T14:46:14.553Z,100.00
2019-01-11T14:49:18.034Z,100.00
2019-01-11T14:52:21.569Z,100.00
2019-01-11T14:55:25.020Z,100.00
2019-01-11T14:58:28.881Z,100.00
2019-01-11T15:01:32.057Z,100.00
2019-01-11T15:04:35.633Z,100.00
2019-01-11T15:07:39.102Z,100.00
2019-01-11T15:10:42.571Z,100.00
2019-01-11T15:13:46.031Z,100.00
2019-01-11T15:16:49.402Z,100.00
2019-01-11T15:19:52.873Z,100.00
2019-01-11T15:22:56.345Z,100.00
2019-01-11T15:25:59.751Z,100.00
2019-01-11T15:29:03.235Z,100.00
2019-01-11T15:32:06.620Z,100.00
2019-01-11T15:35:10.166Z,100.00
2019-01-11T15:38:13.608Z,100.00
2019-01-11T15:41:17.273Z,100.00
2019-01-11T15:44:20.692Z,100.00
2019-01-11T15:47:24.167Z,100.00
2019-01-11T15:50:38.788Z,100.00
2019-01-11T15:53:42.265Z,100.00
2019-01-11T15:56:45.793Z,100.00
2019-01-11T15:59:58.916Z,100.00
2019-01-11T16:03:02.379Z,100.00
2019-01-11T16:06:30.848Z,100.00
2019-01-11T16:09:49.834Z,100.00
2019-01-11T16:13:10.398Z,100.00
2019-01-11T16:16:22.474Z,100.00
2019-01-11T16:19:26.200Z,100.00
2019-01-11T16:22:29.717Z,100.00
2019-01-11T16:25:33.215Z,100.00
2019-01-11T16:28:36.730Z,100.00
2019-01-11T16:31:40.332Z,100.00
2019-01-11T16:34:43.900Z,100.00
2019-01-11T16:37:47.502Z,100.00
2019-01-11T16:40:50.924Z,100.00
2019-01-11T16:43:54.356Z,100.00
2019-01-11T16:46:57.931Z,100.00
2019-01-11T16:50:01.438Z,100.00
2019-01-11T16:53:04.917Z,100.00
2019-01-11T16:56:08.420Z,100.00
2019-01-11T16:59:11.976Z,100.00
2019-01-11T17:02:15.485Z,100.00
2019-01-11T17:05:18.950Z,100.00
2019-01-11T17:08:22.454Z,100.00
2019-01-11T17:11:25.945Z,100.00
2019-01-11T17:14:29.429Z,100.00
2019-01-11T17:17:32.962Z,100.00
2019-01-11T17:20:36.449Z,100.00
2019-01-11T17:23:40.843Z,100.00
2019-01-11T17:26:44.349Z,100.00
2019-01-11T17:29:47.714Z,100.00
2019-01-11T17:32:52.184Z,100.00
2019-01-11T17:35:55.621Z,100.00
2019-01-11T17:38:59.117Z,100.00
2019-01-11T17:42:03.881Z,100.00
2019-01-11T17:45:08.898Z,100.00
2019-01-11T17:48:15.474Z,100.00
2019-01-11T17:51:19.143Z,100.00
2019-01-11T17:54:29.622Z,100.00
2019-01-11T17:57:33.584Z,100.00
2019-01-11T18:00:37.059Z,100.00
2019-01-11T18:03:40.504Z,100.00
2019-01-11T18:06:44.052Z,100.00
2019-01-11T18:09:47.718Z,100.00
2019-01-11T18:12:51.134Z,100.00
2019-01-11T18:15:54.545Z,100.00
2019-01-11T18:18:57.946Z,100.00
2019-01-11T18:22:01.283Z,100.00
2019-01-11T18:25:05.482Z,100.00
2019-01-11T18:28:09.028Z,100.00
2019-01-11T18:31:12.528Z,100.00
2019-01-11T18:34:17.473Z,100.00
2019-01-11T18:37:19.919Z,100.00
2019-01-11T18:40:24.340Z,100.00
2019-01-11T18:43:27.795Z,100.00
2019-01-11T18:46:31.259Z,100.00
2019-01-11T18:49:35.493Z,100.00
2019-01-11T18:52:38.922Z,100.00
2019-01-11T18:55:42.515Z,100.00
2019-01-11T18:58:46.030Z,100.00
2019-01-11T19:01:49.455Z,100.00
2019-01-11T19:04:53.678Z,100.00
2019-01-11T19:07:57.191Z,100.00
2019-01-11T19:11:00.703Z,100.00
2019-01-11T19:14:04.301Z,100.00
2019-01-11T19:17:07.931Z,100.00
2019-01-11T19:20:15.670Z,100.00
2019-01-11T19:23:20.584Z,100.00
2019-01-11T19:26:22.679Z,100.00
2019-01-11T19:29:26.829Z,100.00
2019-01-11T19:32:30.243Z,100.00
2019-01-11T19:35:33.822Z,100.00
2019-01-11T19:38:37.394Z,100.00
2019-01-11T19:41:40.884Z,100.00
2019-01-11T19:44:44.435Z,100.00
2019-01-11T19:47:49.469Z,100.00
2019-01-11T19:50:54.798Z,100.00
2019-01-11T19:53:59.487Z,100.00
2019-01-11T19:57:03.344Z,100.00
2019-01-11T20:00:11.116Z,100.00
2019-01-11T20:03:14.651Z,100.00
2019-01-11T20:06:18.197Z,100.00
2019-01-11T20:09:22.058Z,100.00
2019-01-11T20:12:25.951Z,100.00
2019-01-11T20:15:29.521Z,100.00
2019-01-11T20:18:33.819Z,100.00
2019-01-11T20:21:38.069Z,100.00
2019-01-11T20:24:42.416Z,100.00
2019-01-11T20:27:46.076Z,100.00
2019-01-11T20:30:50.618Z,100.00
2019-01-11T20:33:55.704Z,100.00
2019-01-11T20:37:04.502Z,100.00
2019-01-11T20:40:10.731Z,100.00
2019-01-11T20:43:14.433Z,100.00
2019-01-11T20:46:18.048Z,100.00
2019-01-11T20:49:21.456Z,100.00
2019-01-11T20:52:25.291Z,100.00
2019-01-11T20:55:29.739Z,100.00
2019-01-11T20:58:33.200Z,100.00
2019-01-11T21:01:37.545Z,100.00
2019-01-11T21:04:46.693Z,100.00
2019-01-11T21:07:50.323Z,100.00
2019-01-11T21:10:54.288Z,100.00
2019-01-11T21:13:58.864Z,100.00
2019-01-11T21:17:02.356Z,100.00
2019-01-11T21:20:08.104Z,100.00
2019-01-11T21:23:11.749Z,100.00
2019-01-11T21:26:15.252Z,100.00
2019-01-11T21:29:18.663Z,100.00
2019-01-11T21:32:23.002Z,100.00
2019-01-11T21:35:26.691Z,100.00
2019-01-11T21:38:30.216Z,100.00
2019-01-11T21:41:34.045Z,100.00
2019-01-11T21:44:37.616Z,100.00
2019-01-11T21:47:41.345Z,100.00
2019-01-11T21:50:44.972Z,100.00
2019-01-11T21:53:48.409Z,100.00
2019-01-11T21:56:51.851Z,100.00
2019-01-11T21:59:56.039Z,100.00
2019-01-11T22:02:59.509Z,100.00
2019-01-11T22:06:02.992Z,100.00
2019-01-11T22:09:08.344Z,100.00
2019-01-11T22:12:11.703Z,100.00
2019-01-11T22:15:15.748Z,100.00
2019-01-11T22:18:19.627Z,100.00
2019-01-11T22:21:23.683Z,100.00
2019-01-11T22:24:27.363Z,100.00
2019-01-11T22:27:30.797Z,100.00
2019-01-11T22:30:35.080Z,100.00
2019-01-11T22:33:38.645Z,100.00
2019-01-11T22:36:42.273Z,100.00
2019-01-11T22:39:45.943Z,100.00
2019-01-11T22:42:51.211Z,100.00
2019-01-11T22:45:55.716Z,100.00
2019-01-11T22:48:59.226Z,100.00
2019-01-11T22:52:02.793Z,100.00
2019-01-11T22:55:07.011Z,100.00
2019-01-11T22:58:10.487Z,100.00
2019-01-11T23:01:51.341Z,100.00
2019-01-11T23:04:54.845Z,100.00
2019-01-11T23:08:01.296Z,100.00
2019-01-11T23:11:52.919Z,100.00
2019-01-11T23:14:56.395Z,100.00
2019-01-11T23:18:17.559Z,100.00
2019-01-11T23:21:21.068Z,100.00
2019-01-11T23:24:24.569Z,100.00
2019-01-11T23:27:28.092Z,100.00
2019-01-11T23:30:31.712Z,100.00
2019-01-11T23:33:35.216Z,100.00
2019-01-11T23:36:38.674Z,100.00
2019-01-11T23:39:42.185Z,100.00
2019-01-11T23:42:45.848Z,100.00
2019-01-11T23:45:49.282Z,100.00
2019-01-11T23:48:52.794Z,100.00
2019-01-11T23:51:56.335Z,100.00
2019-01-11T23:54:59.791Z,100.00
2019-01-11T23:58:03.297Z,100.00
